createdAt,value
2022-10-22T00:00:18.386Z,15.20
2022-10-22T00:02:46.949Z,15.20
2022-10-22T00:05:13.864Z,15.10
2022-10-22T00:07:41.435Z,15.10
2022-10-22T00:10:12.164Z,15.10
2022-10-22T00:12:40.102Z,15.20
2022-10-22T00:15:07.919Z,15.10
2022-10-22T00:17:34.754Z,15.10
2022-10-22T00:20:03.263Z,15.10
2022-10-22T00:22:30.174Z,15.10
2022-10-22T00:24:57.012Z,15.20
2022-10-22T00:27:24.309Z,15.10
2022-10-22T00:29:51.892Z,15.20
2022-10-22T00:32:18.710Z,15.20
2022-10-22T00:34:45.715Z,15.20
2022-10-22T00:37:17.417Z,15.20
2022-10-22T00:39:44.266Z,15.20
2022-10-22T00:42:16.823Z,15.20
2022-10-22T00:45:08.210Z,15.20
2022-10-22T00:47:37.380Z,15.20
2022-10-22T00:50:07.742Z,15.20
2022-10-22T00:52:36.574Z,15.20
2022-10-22T00:55:04.607Z,15.10
2022-10-22T00:57:32.380Z,15.10
2022-10-22T01:00:00.662Z,15.10
2022-10-22T01:02:27.739Z,15.10
2022-10-22T01:04:54.950Z,15.00
2022-10-22T01:07:24.457Z,15.00
2022-10-22T01:10:03.191Z,15.00
2022-10-22T01:12:41.763Z,15.00
2022-10-22T01:15:16.899Z,15.00
2022-10-22T01:17:52.672Z,14.90
2022-10-22T01:20:38.391Z,14.90
2022-10-22T01:23:21.310Z,14.90
2022-10-22T01:25:56.912Z,14.90
2022-10-22T01:28:37.909Z,14.90
2022-10-22T01:31:06.198Z,14.90
2022-10-22T01:33:33.878Z,14.90
2022-10-22T01:36:01.148Z,15.00
2022-10-22T01:38:28.227Z,14.90
2022-10-22T01:40:55.597Z,15.00
2022-10-22T01:43:22.863Z,15.00
2022-10-22T01:46:01.238Z,15.00
2022-10-22T01:48:39.957Z,15.00
2022-10-22T01:51:36.401Z,15.00
2022-10-22T01:54:10.126Z,15.00
2022-10-22T01:56:53.475Z,15.00
2022-10-22T01:59:33.239Z,15.00
2022-10-22T02:02:05.900Z,15.00
2022-10-22T02:04:39.728Z,15.00
2022-10-22T02:07:11.684Z,15.00
2022-10-22T02:09:40.882Z,14.90
2022-10-22T02:12:10.017Z,14.90
2022-10-22T02:14:40.100Z,14.90
2022-10-22T02:17:11.238Z,14.80
2022-10-22T02:19:44.440Z,14.80
2022-10-22T02:22:11.876Z,14.80
2022-10-22T02:24:38.907Z,14.70
2022-10-22T02:27:12.682Z,14.70
2022-10-22T02:29:43.509Z,14.70
2022-10-22T02:32:16.880Z,14.70
2022-10-22T02:34:46.113Z,14.70
2022-10-22T02:37:14.608Z,14.70
2022-10-22T02:39:42.248Z,14.60
2022-10-22T02:42:09.705Z,14.60
2022-10-22T02:44:39.035Z,14.60
2022-10-22T02:47:05.884Z,14.60
2022-10-22T02:49:34.094Z,14.60
2022-10-22T02:52:01.694Z,14.60
2022-10-22T02:54:31.838Z,14.60
2022-10-22T02:56:58.648Z,14.60
2022-10-22T02:59:35.041Z,14.60
2022-10-22T03:02:01.950Z,14.60
2022-10-22T03:04:29.086Z,14.60
2022-10-22T03:06:57.618Z,14.60
2022-10-22T03:09:25.051Z,14.60
2022-10-22T03:11:52.422Z,14.60
2022-10-22T03:14:21.982Z,14.60
2022-10-22T03:16:49.033Z,14.60
2022-10-22T03:19:15.994Z,14.60
2022-10-22T03:21:47.356Z,14.60
2022-10-22T03:24:22.147Z,14.50
2022-10-22T03:26:51.936Z,14.50
2022-10-22T03:29:19.741Z,14.50
2022-10-22T03:31:46.514Z,14.50
2022-10-22T03:34:13.831Z,14.50
2022-10-22T03:36:41.406Z,14.50
2022-10-22T03:39:09.153Z,14.40
2022-10-22T03:41:37.525Z,14.50
2022-10-22T03:44:05.121Z,14.50
2022-10-22T03:46:32.398Z,14.40
2022-10-22T03:48:59.256Z,14.40
2022-10-22T03:51:26.803Z,14.40
2022-10-22T03:53:53.689Z,14.40
2022-10-22T03:56:23.811Z,14.40
2022-10-22T03:58:55.486Z,14.40
2022-10-22T04:01:22.982Z,14.40
2022-10-22T04:03:49.839Z,14.40
2022-10-22T04:06:17.064Z,14.40
2022-10-22T04:08:45.821Z,14.40
2022-10-22T04:11:15.458Z,14.40
2022-10-22T04:13:43.049Z,14.40
2022-10-22T04:16:15.959Z,14.40
2022-10-22T04:18:44.074Z,14.40
2022-10-22T04:21:12.555Z,14.30
2022-10-22T04:23:39.522Z,14.40
2022-10-22T04:26:07.873Z,14.40
2022-10-22T04:28:35.219Z,14.40
2022-10-22T04:31:08.988Z,14.40
2022-10-22T04:33:37.711Z,14.40
2022-10-22T04:36:09.197Z,14.40
2022-10-22T04:38:36.433Z,14.40
2022-10-22T04:41:12.027Z,14.40
2022-10-22T04:43:39.354Z,14.40
2022-10-22T04:46:09.089Z,14.40
2022-10-22T04:48:38.164Z,14.40
2022-10-22T04:51:09.075Z,14.40
2022-10-22T04:53:36.582Z,14.40
2022-10-22T04:56:10.924Z,14.40
2022-10-22T04:58:38.276Z,14.40
2022-10-22T05:01:10.890Z,14.40
2022-10-22T05:03:39.567Z,14.40
2022-10-22T05:06:07.405Z,14.40
2022-10-22T05:08:34.411Z,14.40
2022-10-22T05:11:01.791Z,14.40
2022-10-22T05:13:28.659Z,14.40
2022-10-22T05:15:55.934Z,14.40
2022-10-22T05:18:22.827Z,14.30
2022-10-22T05:20:51.083Z,14.30
2022-10-22T05:23:17.917Z,14.30
2022-10-22T05:25:44.840Z,14.30
2022-10-22T05:28:11.636Z,14.30
2022-10-22T05:30:38.936Z,14.30
2022-10-22T05:33:05.909Z,14.30
2022-10-22T05:35:33.329Z,14.30
2022-10-22T05:38:01.737Z,14.20
2022-10-22T05:40:31.227Z,14.20
2022-10-22T05:42:59.425Z,14.20
2022-10-22T05:45:26.204Z,14.20
2022-10-22T05:47:53.075Z,14.20
2022-10-22T05:50:20.194Z,14.20
2022-10-22T05:52:46.972Z,14.10
2022-10-22T05:55:18.315Z,14.10
2022-10-22T05:57:49.154Z,14.10
2022-10-22T06:00:16.910Z,14.10
2022-10-22T06:02:43.748Z,14.10
2022-10-22T06:05:10.634Z,14.00
2022-10-22T06:07:37.538Z,14.00
2022-10-22T06:10:05.723Z,14.00
2022-10-22T06:12:34.424Z,14.00
2022-10-22T06:15:01.208Z,14.00
2022-10-22T06:17:29.405Z,14.00
2022-10-22T06:19:56.396Z,13.90
2022-10-22T06:22:23.316Z,13.90
2022-10-22T06:24:50.078Z,13.90
2022-10-22T06:27:17.010Z,13.90
2022-10-22T06:29:45.370Z,13.90
2022-10-22T06:32:12.174Z,13.90
2022-10-22T06:34:39.236Z,13.90
2022-10-22T06:37:06.391Z,13.90
2022-10-22T06:39:33.231Z,13.90
2022-10-22T06:42:00.335Z,13.90
2022-10-22T06:44:27.207Z,13.90
2022-10-22T06:46:58.431Z,13.90
2022-10-22T06:49:25.575Z,13.90
2022-10-22T06:51:56.522Z,13.90
2022-10-22T06:54:23.478Z,13.90
2022-10-22T06:56:50.297Z,14.00
2022-10-22T06:59:17.362Z,14.00
2022-10-22T07:01:44.239Z,14.00
2022-10-22T07:04:12.870Z,14.00
2022-10-22T07:06:39.771Z,14.00
2022-10-22T07:09:07.178Z,14.10
2022-10-22T07:11:40.108Z,14.10
2022-10-22T07:14:07.937Z,14.20
2022-10-22T07:16:35.080Z,14.20
2022-10-22T07:19:02.970Z,14.20
2022-10-22T07:21:31.911Z,14.20
2022-10-22T07:23:59.177Z,14.30
2022-10-22T07:26:30.932Z,14.30
2022-10-22T07:28:59.225Z,14.40
2022-10-22T07:31:27.005Z,14.40
2022-10-22T07:33:53.884Z,14.40
2022-10-22T07:36:20.730Z,14.50
2022-10-22T07:38:53.256Z,14.50
2022-10-22T07:41:20.541Z,14.50
2022-10-22T07:43:47.370Z,14.60
2022-10-22T07:46:14.949Z,14.60
2022-10-22T07:48:41.889Z,14.70
2022-10-22T07:51:11.695Z,14.70
2022-10-22T07:53:39.084Z,14.80
2022-10-22T07:56:08.028Z,14.80
2022-10-22T07:58:34.998Z,14.90
2022-10-22T08:01:03.145Z,14.90
2022-10-22T08:03:30.247Z,15.00
2022-10-22T08:05:57.698Z,15.00
2022-10-22T08:08:28.355Z,15.00
2022-10-22T08:10:59.245Z,15.10
2022-10-22T08:13:30.439Z,15.10
2022-10-22T08:15:58.471Z,15.10
2022-10-22T08:18:25.297Z,15.20
2022-10-22T08:20:52.373Z,15.20
2022-10-22T08:23:21.195Z,15.30
2022-10-22T08:25:54.274Z,15.30
2022-10-22T08:28:22.502Z,15.40
2022-10-22T08:30:50.660Z,15.40
2022-10-22T08:33:17.554Z,15.40
2022-10-22T08:35:48.408Z,15.40
2022-10-22T08:38:15.233Z,15.50
2022-10-22T08:40:44.004Z,15.50
2022-10-22T08:43:37.597Z,15.50
2022-10-22T08:46:24.417Z,15.50
2022-10-22T08:48:54.128Z,15.50
2022-10-22T08:51:26.160Z,15.50
2022-10-22T08:54:08.809Z,15.60
2022-10-22T08:56:37.087Z,15.50
2022-10-22T08:59:12.015Z,15.60
2022-10-22T09:01:43.662Z,15.60
2022-10-22T09:04:25.248Z,15.70
2022-10-22T09:06:54.489Z,15.80
2022-10-22T09:09:21.888Z,15.90
2022-10-22T09:11:50.960Z,16.00
2022-10-22T09:14:20.181Z,16.20
2022-10-22T09:17:09.560Z,16.30
2022-10-22T09:19:42.031Z,16.50
2022-10-22T09:22:21.130Z,16.90
2022-10-22T09:24:52.523Z,17.30
2022-10-22T09:27:23.636Z,17.70
2022-10-22T09:29:50.506Z,18.10
2022-10-22T09:32:19.930Z,18.40
2022-10-22T09:34:50.431Z,18.60
2022-10-22T09:37:19.965Z,18.90
2022-10-22T09:39:51.277Z,18.90
2022-10-22T09:42:20.071Z,18.80
2022-10-22T09:44:53.272Z,18.80
2022-10-22T09:47:42.663Z,18.80
2022-10-22T09:50:26.314Z,18.90
2022-10-22T09:53:00.622Z,19.30
2022-10-22T09:55:28.361Z,19.40
2022-10-22T09:57:56.103Z,19.40
2022-10-22T10:00:25.046Z,19.30
2022-10-22T10:02:57.172Z,19.10
2022-10-22T10:05:30.001Z,18.90
2022-10-22T10:07:58.191Z,18.90
2022-10-22T10:10:40.710Z,18.70
2022-10-22T10:13:29.122Z,18.50
2022-10-22T10:16:01.825Z,18.30
2022-10-22T10:18:43.572Z,18.20
2022-10-22T10:21:16.277Z,18.10
2022-10-22T10:23:49.428Z,17.90
2022-10-22T10:26:23.320Z,18.00
2022-10-22T10:28:55.076Z,18.00
2022-10-22T10:31:38.557Z,18.00
2022-10-22T10:34:19.143Z,18.00
2022-10-22T10:37:01.791Z,18.00
2022-10-22T10:39:41.583Z,18.10
2022-10-22T10:42:21.912Z,18.20
2022-10-22T10:45:09.294Z,18.20
2022-10-22T10:48:04.330Z,18.20
2022-10-22T10:50:40.410Z,18.30
2022-10-22T10:53:17.556Z,18.40
2022-10-22T10:55:54.740Z,18.40
2022-10-22T10:58:31.666Z,18.50
2022-10-22T11:01:03.502Z,18.50
2022-10-22T11:03:57.076Z,18.60
2022-10-22T11:06:27.430Z,18.60
2022-10-22T11:09:00.011Z,18.60
2022-10-22T11:11:32.975Z,18.70
2022-10-22T11:14:05.558Z,18.70
2022-10-22T11:16:36.828Z,18.80
2022-10-22T11:19:15.495Z,18.70
2022-10-22T11:21:56.311Z,18.70
2022-10-22T11:24:27.751Z,18.70
2022-10-22T11:26:57.907Z,18.80
2022-10-22T11:29:30.742Z,18.80
2022-10-22T11:32:01.800Z,18.90
2022-10-22T11:34:34.693Z,19.00
2022-10-22T11:37:04.823Z,19.00
2022-10-22T11:39:45.138Z,19.10
2022-10-22T11:42:18.542Z,19.00
2022-10-22T11:44:59.596Z,19.00
2022-10-22T11:47:28.635Z,18.90
2022-10-22T11:50:02.890Z,18.90
2022-10-22T11:52:48.009Z,18.90
2022-10-22T11:55:50.960Z,18.90
2022-10-22T11:58:33.386Z,18.80
2022-10-22T12:01:21.652Z,18.80
2022-10-22T12:03:50.957Z,18.70
2022-10-22T12:06:24.280Z,18.70
2022-10-22T12:09:00.021Z,18.70
2022-10-22T12:11:29.460Z,18.60
2022-10-22T12:14:03.335Z,18.60
2022-10-22T12:16:56.144Z,18.60
2022-10-22T12:19:32.475Z,18.60
2022-10-22T12:22:04.581Z,18.60
2022-10-22T12:24:37.111Z,18.70
2022-10-22T12:27:04.491Z,18.80
2022-10-22T12:29:32.942Z,18.80
2022-10-22T12:32:03.974Z,18.90
2022-10-22T12:34:30.811Z,19.00
2022-10-22T12:36:58.193Z,19.00
2022-10-22T12:39:27.562Z,18.90
2022-10-22T12:41:56.069Z,18.90
2022-10-22T12:44:23.091Z,18.90
2022-10-22T12:46:54.420Z,19.00
2022-10-22T12:49:28.130Z,19.00
2022-10-22T12:51:55.071Z,19.10
2022-10-22T12:54:26.453Z,19.10
2022-10-22T12:56:56.924Z,19.10
2022-10-22T12:59:26.555Z,19.00
2022-10-22T13:01:54.966Z,19.00
2022-10-22T13:04:32.948Z,18.90
2022-10-22T13:07:19.760Z,18.90
2022-10-22T13:09:58.128Z,18.80
2022-10-22T13:12:28.879Z,18.70
2022-10-22T13:14:55.774Z,18.60
2022-10-22T13:17:40.434Z,18.50
2022-10-22T13:20:18.604Z,18.50
2022-10-22T13:22:54.655Z,18.50
2022-10-22T13:25:25.015Z,18.40
2022-10-22T13:27:56.742Z,18.40
2022-10-22T13:30:25.669Z,18.50
2022-10-22T13:32:55.506Z,18.50
2022-10-22T13:35:25.540Z,18.60
2022-10-22T13:37:52.819Z,18.60
2022-10-22T13:40:20.852Z,18.60
2022-10-22T13:42:48.137Z,18.60
2022-10-22T13:45:19.484Z,18.50
2022-10-22T13:47:51.534Z,18.60
2022-10-22T13:50:21.764Z,18.50
2022-10-22T13:52:51.560Z,18.50
2022-10-22T13:55:25.732Z,18.50
2022-10-22T13:57:55.153Z,18.50
2022-10-22T14:00:24.181Z,18.50
2022-10-22T14:02:57.058Z,18.40
2022-10-22T14:05:24.061Z,18.50
2022-10-22T14:07:51.832Z,18.50
2022-10-22T14:10:21.994Z,18.40
2022-10-22T14:12:52.529Z,18.50
2022-10-22T14:15:24.114Z,18.50
2022-10-22T14:17:53.640Z,18.40
2022-10-22T14:20:26.388Z,18.40
2022-10-22T14:22:53.466Z,18.40
2022-10-22T14:25:22.387Z,18.30
2022-10-22T14:27:49.334Z,18.30
2022-10-22T14:30:17.822Z,18.30
2022-10-22T14:32:48.211Z,18.30
2022-10-22T14:35:16.946Z,18.20
2022-10-22T14:37:43.950Z,18.20
2022-10-22T14:40:14.011Z,18.10
2022-10-22T14:42:43.405Z,18.10
2022-10-22T14:45:18.608Z,18.00
2022-10-22T14:47:46.987Z,18.00
2022-10-22T14:50:14.247Z,18.00
2022-10-22T14:52:43.608Z,17.90
2022-10-22T14:55:11.649Z,17.90
2022-10-22T14:57:39.957Z,17.90
2022-10-22T15:00:10.208Z,17.90
2022-10-22T15:02:37.181Z,17.90
2022-10-22T15:05:06.878Z,17.90
2022-10-22T15:07:34.199Z,17.90
2022-10-22T15:10:01.043Z,17.90
2022-10-22T15:12:27.874Z,17.90
2022-10-22T15:14:54.791Z,17.90
2022-10-22T15:17:21.712Z,17.90
2022-10-22T15:19:48.676Z,17.90
2022-10-22T15:22:26.146Z,17.90
2022-10-22T15:24:54.136Z,17.80
2022-10-22T15:27:21.133Z,17.90
2022-10-22T15:29:48.519Z,17.80
2022-10-22T15:32:15.593Z,17.80
2022-10-22T15:34:44.467Z,17.70
2022-10-22T15:37:13.607Z,17.70
2022-10-22T15:39:42.748Z,17.70
2022-10-22T15:42:10.110Z,17.60
2022-10-22T15:44:37.662Z,17.60
2022-10-22T15:47:07.244Z,17.60
2022-10-22T15:49:36.339Z,17.50
2022-10-22T15:52:03.330Z,17.40
2022-10-22T15:54:30.706Z,17.40
2022-10-22T15:57:01.999Z,17.40
2022-10-22T15:59:29.203Z,17.30
2022-10-22T16:01:56.642Z,17.20
2022-10-22T16:04:23.490Z,17.20
2022-10-22T16:06:54.636Z,17.20
2022-10-22T16:09:23.427Z,17.00
2022-10-22T16:14:21.813Z,16.90
2022-10-22T16:16:50.743Z,16.90
2022-10-22T16:19:20.709Z,16.90
2022-10-22T16:21:50.111Z,16.80
2022-10-22T16:24:17.471Z,16.70
2022-10-22T16:26:44.329Z,16.60
2022-10-22T16:29:12.585Z,16.60
2022-10-22T16:31:42.845Z,16.50
2022-10-22T16:34:10.160Z,16.40
2022-10-22T16:36:37.104Z,16.40
2022-10-22T16:39:05.623Z,16.40
2022-10-22T16:41:35.357Z,16.30
2022-10-22T16:44:04.994Z,16.20
2022-10-22T16:46:32.026Z,16.20
2022-10-22T16:49:00.426Z,16.10
2022-10-22T16:51:28.544Z,16.10
2022-10-22T16:53:57.281Z,16.00
2022-10-22T16:56:25.248Z,15.90
2022-10-22T16:58:54.630Z,15.90
2022-10-22T17:01:55.088Z,15.80
2022-10-22T17:05:09.253Z,15.80
2022-10-22T17:07:36.082Z,15.70
2022-10-22T17:10:05.259Z,15.60
2022-10-22T17:12:35.293Z,15.50
2022-10-22T17:15:11.986Z,15.40
2022-10-22T17:17:39.267Z,15.40
2022-10-22T17:20:08.310Z,15.30
2022-10-22T17:22:35.193Z,15.30
2022-10-22T17:25:11.207Z,15.20
2022-10-22T17:27:38.468Z,15.10
2022-10-22T17:30:07.124Z,15.10
2022-10-22T17:32:37.432Z,15.00
2022-10-22T17:35:05.475Z,15.00
2022-10-22T17:37:34.497Z,14.90
2022-10-22T17:40:01.588Z,14.90
2022-10-22T17:42:28.618Z,14.90
2022-10-22T17:44:55.525Z,14.80
2022-10-22T17:47:22.623Z,14.80
2022-10-22T17:49:49.759Z,14.70
2022-10-22T17:52:16.713Z,14.70
2022-10-22T17:54:45.168Z,14.60
2022-10-22T17:57:16.116Z,14.60
2022-10-22T17:59:42.930Z,14.60
2022-10-22T18:02:14.204Z,14.50
2022-10-22T18:04:41.113Z,14.50
2022-10-22T18:07:08.135Z,14.50
2022-10-22T18:09:34.991Z,14.40
2022-10-22T18:12:03.454Z,14.40
2022-10-22T18:14:30.343Z,14.40
2022-10-22T18:16:57.263Z,14.40
2022-10-22T18:19:24.617Z,14.40
2022-10-22T18:21:51.464Z,14.30
2022-10-22T18:24:18.645Z,14.30
2022-10-22T18:26:45.883Z,14.30
2022-10-22T18:29:16.978Z,14.20
2022-10-22T18:31:44.296Z,14.20
2022-10-22T18:34:11.791Z,14.20
2022-10-22T18:36:40.016Z,14.20
2022-10-22T18:39:08.856Z,14.10
2022-10-22T18:41:35.924Z,14.10
2022-10-22T18:44:05.084Z,14.10
2022-10-22T18:46:38.213Z,14.00
2022-10-22T18:49:07.105Z,14.00
2022-10-22T18:51:34.915Z,14.00
2022-10-22T18:54:22.153Z,13.90
2022-10-22T18:56:49.775Z,13.90
2022-10-22T18:59:20.166Z,13.90
2022-10-22T19:01:49.088Z,13.90
2022-10-22T19:04:16.629Z,13.90
2022-10-22T19:06:45.680Z,13.80
2022-10-22T19:09:13.969Z,13.80
2022-10-22T19:11:41.990Z,13.70
2022-10-22T19:14:08.784Z,13.70
2022-10-22T19:16:37.514Z,13.70
2022-10-22T19:19:07.601Z,13.70
2022-10-22T19:21:35.852Z,13.60
2022-10-22T19:24:03.531Z,13.60
2022-10-22T19:26:31.115Z,13.60
2022-10-22T19:29:02.131Z,13.60
2022-10-22T19:31:31.089Z,13.60
2022-10-22T19:33:58.968Z,13.50
2022-10-22T19:36:29.043Z,13.50
2022-10-22T19:38:56.859Z,13.50
2022-10-22T19:41:25.920Z,13.50
2022-10-22T19:43:54.705Z,13.50
2022-10-22T19:46:23.142Z,13.50
2022-10-22T19:48:52.235Z,13.50
2022-10-22T19:51:21.300Z,13.50
2022-10-22T19:53:50.207Z,13.40
2022-10-22T19:56:19.325Z,13.40
2022-10-22T19:58:46.740Z,13.40
2022-10-22T20:01:16.192Z,13.40
2022-10-22T20:03:43.653Z,13.40
2022-10-22T20:06:13.797Z,13.40
2022-10-22T20:08:41.002Z,13.40
2022-10-22T20:11:10.793Z,13.40
2022-10-22T20:16:09.953Z,13.40
2022-10-22T20:18:38.117Z,13.40
2022-10-22T20:21:05.659Z,13.40
2022-10-22T20:23:32.847Z,13.40
2022-10-22T20:25:59.887Z,13.30
2022-10-22T20:28:28.206Z,13.30
2022-10-22T20:30:55.005Z,13.40
2022-10-22T20:33:22.080Z,13.30
2022-10-22T20:35:59.209Z,13.30
2022-10-22T20:38:29.746Z,13.30
2022-10-22T20:41:01.098Z,13.30
2022-10-22T20:43:29.435Z,13.30
2022-10-22T20:45:56.505Z,13.30
2022-10-22T20:48:26.747Z,13.20
2022-10-22T20:50:54.324Z,13.20
2022-10-22T20:53:22.274Z,13.20
2022-10-22T20:55:51.861Z,13.20
2022-10-22T20:58:20.708Z,13.20
2022-10-22T21:00:50.859Z,13.20
2022-10-22T21:03:18.339Z,13.20
2022-10-22T21:05:45.398Z,13.20
2022-10-22T21:08:17.208Z,13.20
2022-10-22T21:10:46.476Z,13.20
2022-10-22T21:13:13.757Z,13.20
2022-10-22T21:15:41.325Z,13.20
2022-10-22T21:18:48.141Z,13.20
2022-10-22T21:21:17.153Z,13.10
2022-10-22T21:23:44.187Z,13.20
2022-10-22T21:26:11.612Z,13.20
2022-10-22T21:28:38.957Z,13.20
2022-10-22T21:31:08.077Z,13.20
2022-10-22T21:33:37.869Z,13.20
2022-10-22T21:36:05.936Z,13.20
2022-10-22T21:38:33.040Z,13.20
2022-10-22T21:41:04.340Z,13.20
2022-10-22T21:43:31.198Z,13.20
2022-10-22T21:46:07.753Z,13.20
2022-10-22T21:48:37.561Z,13.20
2022-10-22T21:51:09.572Z,13.20
2022-10-22T21:53:37.307Z,13.20
2022-10-22T21:56:05.550Z,13.20
2022-10-22T21:58:34.077Z,13.20
2022-10-22T22:01:01.263Z,13.20
2022-10-22T22:03:31.408Z,13.20
2022-10-22T22:06:00.270Z,13.20
2022-10-22T22:08:27.203Z,13.20
2022-10-22T22:11:01.666Z,13.20
2022-10-22T22:13:28.528Z,13.20
2022-10-22T22:15:59.787Z,13.30
2022-10-22T22:18:26.578Z,13.30
2022-10-22T22:20:53.348Z,13.30
2022-10-22T22:23:21.548Z,13.30
2022-10-22T22:25:48.423Z,13.30
2022-10-22T22:28:15.361Z,13.30
2022-10-22T22:30:43.384Z,13.40
2022-10-22T22:33:10.253Z,13.40
2022-10-22T22:35:37.076Z,13.40
2022-10-22T22:38:04.407Z,13.40
2022-10-22T22:40:33.890Z,13.40
2022-10-22T22:43:00.850Z,13.40
2022-10-22T22:45:27.644Z,13.40
2022-10-22T22:47:54.458Z,13.40
2022-10-22T22:50:21.384Z,13.40
2022-10-22T22:52:48.178Z,13.40
2022-10-22T22:55:24.480Z,13.40
2022-10-22T22:57:52.642Z,13.40
2022-10-22T23:00:19.590Z,13.40
2022-10-22T23:02:48.517Z,13.40
2022-10-22T23:05:15.419Z,13.40
2022-10-22T23:07:42.197Z,13.40
2022-10-22T23:10:09.677Z,13.40
2022-10-22T23:12:36.470Z,13.40
2022-10-22T23:15:05.902Z,13.40
2022-10-22T23:17:32.937Z,13.40
2022-10-22T23:19:59.860Z,13.50
2022-10-22T23:22:26.752Z,13.50
2022-10-22T23:24:53.545Z,13.40
2022-10-22T23:27:20.334Z,13.40
2022-10-22T23:29:47.417Z,13.40
2022-10-22T23:32:15.713Z,13.40
2022-10-22T23:34:42.537Z,13.40
2022-10-22T23:37:11.867Z,13.40
2022-10-22T23:39:38.688Z,13.40
2022-10-22T23:42:05.906Z,13.40
2022-10-22T23:44:32.707Z,13.40
2022-10-22T23:47:00.168Z,13.40
2022-10-22T23:49:28.327Z,13.40
2022-10-22T23:51:55.125Z,13.40
2022-10-22T23:54:21.910Z,13.40
2022-10-22T23:56:49.112Z,13.40
2022-10-22T23:59:16.374Z,13.40
